sensor_id;sensor_type;location;lat;lon;timestamp;P1;durP1;ratioP1;P2;durP2;ratioP2
21878;SDS011;27908;42.708;23.278;2023-02-28T00:01:12;26.50;;;10.98;;
21878;SDS011;27908;42.708;23.278;2023-02-28T00:03:38;27.17;;;11.15;;
21878;SDS011;27908;42.708;23.278;2023-02-28T00:06:04;23.97;;;11.40;;
21878;SDS011;27908;42.708;23.278;2023-02-28T00:08:31;25.08;;;11.73;;
21878;SDS011;27908;42.708;23.278;2023-02-28T00:11:00;29.83;;;11.50;;
21878;SDS011;27908;42.708;23.278;2023-02-28T00:13:26;28.92;;;11.98;;
21878;SDS011;27908;42.708;23.278;2023-02-28T00:16:04;29.70;;;12.60;;
21878;SDS011;27908;42.708;23.278;2023-02-28T00:18:32;26.92;;;11.50;;
21878;SDS011;27908;42.708;23.278;2023-02-28T00:20:58;30.35;;;12.68;;
21878;SDS011;27908;42.708;23.278;2023-02-28T00:23:24;31.33;;;12.73;;
21878;SDS011;27908;42.708;23.278;2023-02-28T00:25:50;34.25;;;13.57;;
21878;SDS011;27908;42.708;23.278;2023-02-28T00:28:17;30.37;;;13.17;;
21878;SDS011;27908;42.708;23.278;2023-02-28T00:30:42;31.45;;;13.25;;
21878;SDS011;27908;42.708;23.278;2023-02-28T00:33:08;36.07;;;15.40;;
21878;SDS011;27908;42.708;23.278;2023-02-28T00:35:33;36.92;;;15.02;;
21878;SDS011;27908;42.708;23.278;2023-02-28T00:37:59;28.37;;;13.00;;
21878;SDS011;27908;42.708;23.278;2023-02-28T00:40:24;37.03;;;14.43;;
21878;SDS011;27908;42.708;23.278;2023-02-28T00:42:50;27.90;;;13.30;;
21878;SDS011;27908;42.708;23.278;2023-02-28T00:45:15;32.23;;;12.80;;
21878;SDS011;27908;42.708;23.278;2023-02-28T00:47:41;27.80;;;11.50;;
21878;SDS011;27908;42.708;23.278;2023-02-28T00:50:06;28.03;;;12.07;;
21878;SDS011;27908;42.708;23.278;2023-02-28T00:52:32;27.77;;;11.50;;
21878;SDS011;27908;42.708;23.278;2023-02-28T00:54:58;26.97;;;11.57;;
21878;SDS011;27908;42.708;23.278;2023-02-28T00:57:23;31.87;;;11.13;;
21878;SDS011;27908;42.708;23.278;2023-02-28T00:59:48;28.40;;;11.73;;
21878;SDS011;27908;42.708;23.278;2023-02-28T01:02:14;26.13;;;10.68;;
21878;SDS011;27908;42.708;23.278;2023-02-28T01:04:39;27.77;;;11.57;;
21878;SDS011;27908;42.708;23.278;2023-02-28T01:07:05;29.23;;;11.57;;
21878;SDS011;27908;42.708;23.278;2023-02-28T01:09:31;29.10;;;11.93;;
21878;SDS011;27908;42.708;23.278;2023-02-28T01:11:56;28.20;;;11.33;;
21878;SDS011;27908;42.708;23.278;2023-02-28T01:14:22;28.50;;;11.20;;
21878;SDS011;27908;42.708;23.278;2023-02-28T01:16:47;25.60;;;10.07;;
21878;SDS011;27908;42.708;23.278;2023-02-28T01:19:12;27.90;;;10.60;;
21878;SDS011;27908;42.708;23.278;2023-02-28T01:21:38;31.53;;;11.47;;
21878;SDS011;27908;42.708;23.278;2023-02-28T01:24:23;30.30;;;11.15;;
21878;SDS011;27908;42.708;23.278;2023-02-28T01:26:48;25.57;;;11.00;;
21878;SDS011;27908;42.708;23.278;2023-02-28T01:29:14;30.07;;;11.57;;
21878;SDS011;27908;42.708;23.278;2023-02-28T01:31:40;26.07;;;10.27;;
21878;SDS011;27908;42.708;23.278;2023-02-28T01:34:05;32.45;;;11.23;;
21878;SDS011;27908;42.708;23.278;2023-02-28T01:36:30;25.67;;;11.40;;
21878;SDS011;27908;42.708;23.278;2023-02-28T01:38:57;30.90;;;11.77;;
21878;SDS011;27908;42.708;23.278;2023-02-28T01:41:26;28.70;;;11.60;;
21878;SDS011;27908;42.708;23.278;2023-02-28T01:47:07;24.73;;;10.43;;
21878;SDS011;27908;42.708;23.278;2023-02-28T01:49:32;28.65;;;10.55;;
21878;SDS011;27908;42.708;23.278;2023-02-28T01:51:58;33.13;;;11.43;;
21878;SDS011;27908;42.708;23.278;2023-02-28T01:54:25;28.13;;;10.43;;
21878;SDS011;27908;42.708;23.278;2023-02-28T01:56:59;29.45;;;10.57;;
21878;SDS011;27908;42.708;23.278;2023-02-28T01:59:45;24.40;;;10.85;;
21878;SDS011;27908;42.708;23.278;2023-02-28T02:02:18;28.15;;;11.00;;
21878;SDS011;27908;42.708;23.278;2023-02-28T02:04:53;29.13;;;10.40;;
21878;SDS011;27908;42.708;23.278;2023-02-28T02:07:22;27.65;;;10.82;;
21878;SDS011;27908;42.708;23.278;2023-02-28T02:09:49;37.70;;;14.30;;
21878;SDS011;27908;42.708;23.278;2023-02-28T02:12:26;34.83;;;13.33;;
21878;SDS011;27908;42.708;23.278;2023-02-28T02:15:08;39.85;;;13.13;;
21878;SDS011;27908;42.708;23.278;2023-02-28T02:17:41;33.38;;;12.00;;
21878;SDS011;27908;42.708;23.278;2023-02-28T02:25:42;34.13;;;12.52;;
21878;SDS011;27908;42.708;23.278;2023-02-28T02:28:35;31.70;;;11.35;;
21878;SDS011;27908;42.708;23.278;2023-02-28T02:36:55;34.30;;;11.63;;
21878;SDS011;27908;42.708;23.278;2023-02-28T02:45:06;34.53;;;13.53;;
21878;SDS011;27908;42.708;23.278;2023-02-28T02:47:35;38.92;;;12.45;;
21878;SDS011;27908;42.708;23.278;2023-02-28T02:50:07;37.83;;;12.70;;
21878;SDS011;27908;42.708;23.278;2023-02-28T02:52:39;39.83;;;13.80;;
21878;SDS011;27908;42.708;23.278;2023-02-28T02:55:09;44.23;;;13.73;;
21878;SDS011;27908;42.708;23.278;2023-02-28T02:57:40;38.35;;;14.00;;
21878;SDS011;27908;42.708;23.278;2023-02-28T03:00:13;38.30;;;12.73;;
21878;SDS011;27908;42.708;23.278;2023-02-28T03:02:43;33.40;;;13.25;;
21878;SDS011;27908;42.708;23.278;2023-02-28T03:05:26;39.67;;;13.65;;
21878;SDS011;27908;42.708;23.278;2023-02-28T03:08:14;32.17;;;12.67;;
21878;SDS011;27908;42.708;23.278;2023-02-28T03:10:41;34.70;;;12.95;;
21878;SDS011;27908;42.708;23.278;2023-02-28T03:21:24;37.57;;;12.73;;
21878;SDS011;27908;42.708;23.278;2023-02-28T03:26:45;36.08;;;13.23;;
21878;SDS011;27908;42.708;23.278;2023-02-28T03:29:20;43.97;;;14.18;;
21878;SDS011;27908;42.708;23.278;2023-02-28T03:31:54;43.85;;;14.98;;
21878;SDS011;27908;42.708;23.278;2023-02-28T03:34:33;37.93;;;13.63;;
21878;SDS011;27908;42.708;23.278;2023-02-28T03:37:03;39.15;;;14.80;;
21878;SDS011;27908;42.708;23.278;2023-02-28T03:39:49;43.75;;;14.55;;
21878;SDS011;27908;42.708;23.278;2023-02-28T03:42:22;42.78;;;13.52;;
21878;SDS011;27908;42.708;23.278;2023-02-28T03:44:55;39.67;;;13.50;;
21878;SDS011;27908;42.708;23.278;2023-02-28T03:47:39;35.27;;;12.23;;
21878;SDS011;27908;42.708;23.278;2023-02-28T03:50:12;40.60;;;14.27;;
21878;SDS011;27908;42.708;23.278;2023-02-28T03:52:47;38.00;;;14.23;;
21878;SDS011;27908;42.708;23.278;2023-02-28T03:55:26;36.00;;;13.27;;
21878;SDS011;27908;42.708;23.278;2023-02-28T03:58:01;32.63;;;12.00;;
21878;SDS011;27908;42.708;23.278;2023-02-28T04:00:37;40.30;;;13.00;;
21878;SDS011;27908;42.708;23.278;2023-02-28T04:03:05;36.55;;;12.52;;
21878;SDS011;27908;42.708;23.278;2023-02-28T04:05:31;33.00;;;11.98;;
21878;SDS011;27908;42.708;23.278;2023-02-28T04:08:06;33.63;;;12.07;;
21878;SDS011;27908;42.708;23.278;2023-02-28T04:10:33;29.07;;;11.63;;
21878;SDS011;27908;42.708;23.278;2023-02-28T04:12:58;29.35;;;10.65;;
21878;SDS011;27908;42.708;23.278;2023-02-28T04:15:24;28.80;;;10.93;;
21878;SDS011;27908;42.708;23.278;2023-02-28T04:17:50;30.77;;;10.23;;
21878;SDS011;27908;42.708;23.278;2023-02-28T04:20:15;30.73;;;10.00;;
21878;SDS011;27908;42.708;23.278;2023-02-28T04:22:41;24.92;;;9.68;;
21878;SDS011;27908;42.708;23.278;2023-02-28T04:25:07;22.40;;;9.50;;
21878;SDS011;27908;42.708;23.278;2023-02-28T04:27:32;25.15;;;9.70;;
21878;SDS011;27908;42.708;23.278;2023-02-28T04:29:58;26.90;;;10.50;;
21878;SDS011;27908;42.708;23.278;2023-02-28T04:32:23;23.27;;;9.77;;
21878;SDS011;27908;42.708;23.278;2023-02-28T04:34:49;26.63;;;10.48;;
21878;SDS011;27908;42.708;23.278;2023-02-28T04:37:14;29.00;;;11.43;;
21878;SDS011;27908;42.708;23.278;2023-02-28T04:39:40;27.90;;;12.90;;
21878;SDS011;27908;42.708;23.278;2023-02-28T04:42:06;29.05;;;12.70;;
21878;SDS011;27908;42.708;23.278;2023-02-28T04:44:31;31.90;;;12.53;;
21878;SDS011;27908;42.708;23.278;2023-02-28T04:46:57;29.43;;;12.13;;
21878;SDS011;27908;42.708;23.278;2023-02-28T04:49:22;29.57;;;11.20;;
21878;SDS011;27908;42.708;23.278;2023-02-28T04:51:47;31.13;;;12.60;;
21878;SDS011;27908;42.708;23.278;2023-02-28T04:54:14;33.23;;;13.33;;
21878;SDS011;27908;42.708;23.278;2023-02-28T04:56:41;31.92;;;12.50;;
21878;SDS011;27908;42.708;23.278;2023-02-28T04:59:06;39.00;;;12.20;;
21878;SDS011;27908;42.708;23.278;2023-02-28T05:01:32;45.83;;;13.77;;
21878;SDS011;27908;42.708;23.278;2023-02-28T05:04:00;35.85;;;11.45;;
21878;SDS011;27908;42.708;23.278;2023-02-28T05:06:28;41.33;;;13.50;;
21878;SDS011;27908;42.708;23.278;2023-02-28T05:08:55;38.55;;;12.00;;
21878;SDS011;27908;42.708;23.278;2023-02-28T05:11:28;46.97;;;17.38;;
21878;SDS011;27908;42.708;23.278;2023-02-28T05:13:59;40.58;;;13.75;;
21878;SDS011;27908;42.708;23.278;2023-02-28T05:16:29;37.53;;;12.52;;
21878;SDS011;27908;42.708;23.278;2023-02-28T05:18:54;36.50;;;13.43;;
21878;SDS011;27908;42.708;23.278;2023-02-28T05:21:24;36.07;;;12.73;;
21878;SDS011;27908;42.708;23.278;2023-02-28T05:24:01;38.15;;;12.23;;
21878;SDS011;27908;42.708;23.278;2023-02-28T05:26:29;39.08;;;13.80;;
21878;SDS011;27908;42.708;23.278;2023-02-28T05:28:55;31.05;;;11.73;;
21878;SDS011;27908;42.708;23.278;2023-02-28T05:31:21;42.50;;;15.67;;
21878;SDS011;27908;42.708;23.278;2023-02-28T05:33:47;41.35;;;14.38;;
21878;SDS011;27908;42.708;23.278;2023-02-28T05:36:12;45.10;;;13.30;;
21878;SDS011;27908;42.708;23.278;2023-02-28T05:38:39;37.27;;;13.27;;
21878;SDS011;27908;42.708;23.278;2023-02-28T05:41:08;37.25;;;13.15;;
21878;SDS011;27908;42.708;23.278;2023-02-28T05:43:35;37.22;;;13.32;;
21878;SDS011;27908;42.708;23.278;2023-02-28T05:46:11;40.00;;;14.52;;
21878;SDS011;27908;42.708;23.278;2023-02-28T05:48:38;40.13;;;14.57;;
21878;SDS011;27908;42.708;23.278;2023-02-28T05:51:04;39.60;;;14.57;;
21878;SDS011;27908;42.708;23.278;2023-02-28T05:53:31;38.72;;;14.73;;
21878;SDS011;27908;42.708;23.278;2023-02-28T05:55:57;43.00;;;15.13;;
21878;SDS011;27908;42.708;23.278;2023-02-28T05:58:22;43.43;;;15.10;;
21878;SDS011;27908;42.708;23.278;2023-02-28T06:00:50;42.05;;;15.77;;
21878;SDS011;27908;42.708;23.278;2023-02-28T06:03:16;47.87;;;16.97;;
21878;SDS011;27908;42.708;23.278;2023-02-28T06:05:41;43.22;;;15.80;;
21878;SDS011;27908;42.708;23.278;2023-02-28T06:08:06;42.67;;;15.60;;
21878;SDS011;27908;42.708;23.278;2023-02-28T06:10:32;42.93;;;15.77;;
21878;SDS011;27908;42.708;23.278;2023-02-28T06:13:02;42.63;;;16.33;;
21878;SDS011;27908;42.708;23.278;2023-02-28T06:15:28;43.55;;;16.08;;
21878;SDS011;27908;42.708;23.278;2023-02-28T06:17:54;48.60;;;17.83;;
21878;SDS011;27908;42.708;23.278;2023-02-28T06:20:21;54.53;;;18.27;;
21878;SDS011;27908;42.708;23.278;2023-02-28T06:22:48;55.10;;;18.40;;
21878;SDS011;27908;42.708;23.278;2023-02-28T06:25:15;47.22;;;16.67;;
21878;SDS011;27908;42.708;23.278;2023-02-28T06:27:40;53.73;;;18.50;;
21878;SDS011;27908;42.708;23.278;2023-02-28T06:30:06;42.57;;;16.73;;
21878;SDS011;27908;42.708;23.278;2023-02-28T06:32:32;55.50;;;19.52;;
21878;SDS011;27908;42.708;23.278;2023-02-28T06:34:57;56.73;;;19.43;;
21878;SDS011;27908;42.708;23.278;2023-02-28T06:37:23;57.45;;;20.63;;
21878;SDS011;27908;42.708;23.278;2023-02-28T06:39:51;55.15;;;20.13;;
21878;SDS011;27908;42.708;23.278;2023-02-28T06:42:17;53.23;;;20.07;;
21878;SDS011;27908;42.708;23.278;2023-02-28T06:44:42;53.05;;;19.10;;
21878;SDS011;27908;42.708;23.278;2023-02-28T06:47:08;54.20;;;19.20;;
21878;SDS011;27908;42.708;23.278;2023-02-28T06:49:34;57.53;;;21.20;;
21878;SDS011;27908;42.708;23.278;2023-02-28T06:52:01;56.83;;;20.65;;
21878;SDS011;27908;42.708;23.278;2023-02-28T06:54:27;60.97;;;20.63;;
21878;SDS011;27908;42.708;23.278;2023-02-28T06:56:52;56.50;;;21.50;;
21878;SDS011;27908;42.708;23.278;2023-02-28T06:59:19;55.67;;;19.77;;
21878;SDS011;27908;42.708;23.278;2023-02-28T07:01:45;56.17;;;19.37;;
21878;SDS011;27908;42.708;23.278;2023-02-28T07:04:11;52.67;;;20.90;;
21878;SDS011;27908;42.708;23.278;2023-02-28T07:06:38;56.13;;;20.63;;
21878;SDS011;27908;42.708;23.278;2023-02-28T07:09:03;58.70;;;21.27;;
21878;SDS011;27908;42.708;23.278;2023-02-28T07:11:29;62.47;;;20.27;;
21878;SDS011;27908;42.708;23.278;2023-02-28T07:13:55;53.25;;;20.35;;
21878;SDS011;27908;42.708;23.278;2023-02-28T07:16:21;61.43;;;21.07;;
21878;SDS011;27908;42.708;23.278;2023-02-28T07:18:48;56.13;;;19.20;;
21878;SDS011;27908;42.708;23.278;2023-02-28T07:21:14;58.72;;;20.88;;
21878;SDS011;27908;42.708;23.278;2023-02-28T07:23:40;60.20;;;23.27;;
21878;SDS011;27908;42.708;23.278;2023-02-28T07:26:07;53.45;;;19.65;;
21878;SDS011;27908;42.708;23.278;2023-02-28T07:28:37;50.03;;;18.50;;
21878;SDS011;27908;42.708;23.278;2023-02-28T07:31:04;53.83;;;18.25;;
21878;SDS011;27908;42.708;23.278;2023-02-28T07:33:30;55.33;;;18.92;;
21878;SDS011;27908;42.708;23.278;2023-02-28T07:36:02;53.87;;;18.80;;
21878;SDS011;27908;42.708;23.278;2023-02-28T07:38:29;52.63;;;20.08;;
21878;SDS011;27908;42.708;23.278;2023-02-28T07:40:55;50.10;;;17.87;;
21878;SDS011;27908;42.708;23.278;2023-02-28T07:43:20;47.77;;;17.50;;
21878;SDS011;27908;42.708;23.278;2023-02-28T07:45:46;52.38;;;18.75;;
21878;SDS011;27908;42.708;23.278;2023-02-28T07:48:11;55.23;;;19.97;;
21878;SDS011;27908;42.708;23.278;2023-02-28T07:50:37;47.50;;;18.80;;
21878;SDS011;27908;42.708;23.278;2023-02-28T07:53:02;49.03;;;17.50;;
21878;SDS011;27908;42.708;23.278;2023-02-28T07:55:28;53.80;;;19.80;;
21878;SDS011;27908;42.708;23.278;2023-02-28T07:57:53;47.17;;;18.48;;
21878;SDS011;27908;42.708;23.278;2023-02-28T08:00:19;52.67;;;20.33;;
21878;SDS011;27908;42.708;23.278;2023-02-28T08:02:44;48.80;;;18.70;;
21878;SDS011;27908;42.708;23.278;2023-02-28T08:05:10;61.87;;;23.77;;
21878;SDS011;27908;42.708;23.278;2023-02-28T08:07:35;50.17;;;18.50;;
21878;SDS011;27908;42.708;23.278;2023-02-28T08:10:01;48.27;;;19.30;;
21878;SDS011;27908;42.708;23.278;2023-02-28T08:12:26;48.00;;;19.77;;
21878;SDS011;27908;42.708;23.278;2023-02-28T08:14:52;59.30;;;19.77;;
21878;SDS011;27908;42.708;23.278;2023-02-28T08:17:17;49.03;;;19.20;;
21878;SDS011;27908;42.708;23.278;2023-02-28T08:19:45;50.10;;;17.93;;
21878;SDS011;27908;42.708;23.278;2023-02-28T08:22:11;55.00;;;19.52;;
21878;SDS011;27908;42.708;23.278;2023-02-28T08:24:36;43.90;;;18.35;;
21878;SDS011;27908;42.708;23.278;2023-02-28T08:27:02;41.47;;;17.57;;
21878;SDS011;27908;42.708;23.278;2023-02-28T08:29:30;47.50;;;18.97;;
21878;SDS011;27908;42.708;23.278;2023-02-28T08:31:55;47.80;;;19.70;;
21878;SDS011;27908;42.708;23.278;2023-02-28T08:34:21;49.95;;;20.50;;
21878;SDS011;27908;42.708;23.278;2023-02-28T08:36:48;57.50;;;22.23;;
21878;SDS011;27908;42.708;23.278;2023-02-28T08:39:13;61.47;;;21.97;;
21878;SDS011;27908;42.708;23.278;2023-02-28T08:41:39;59.83;;;24.97;;
21878;SDS011;27908;42.708;23.278;2023-02-28T08:44:04;47.17;;;18.73;;
21878;SDS011;27908;42.708;23.278;2023-02-28T08:46:29;49.73;;;18.03;;
21878;SDS011;27908;42.708;23.278;2023-02-28T08:48:55;50.20;;;18.63;;
21878;SDS011;27908;42.708;23.278;2023-02-28T08:51:24;52.92;;;20.40;;
21878;SDS011;27908;42.708;23.278;2023-02-28T08:53:53;47.10;;;19.08;;
21878;SDS011;27908;42.708;23.278;2023-02-28T08:56:20;46.95;;;17.70;;
21878;SDS011;27908;42.708;23.278;2023-02-28T08:58:46;48.97;;;18.67;;
21878;SDS011;27908;42.708;23.278;2023-02-28T09:01:14;48.05;;;19.10;;
21878;SDS011;27908;42.708;23.278;2023-02-28T09:03:41;52.67;;;19.42;;
21878;SDS011;27908;42.708;23.278;2023-02-28T09:06:07;45.22;;;18.30;;
21878;SDS011;27908;42.708;23.278;2023-02-28T09:08:33;45.17;;;19.70;;
21878;SDS011;27908;42.708;23.278;2023-02-28T09:10:59;57.30;;;21.00;;
21878;SDS011;27908;42.708;23.278;2023-02-28T09:13:25;48.27;;;20.13;;
21878;SDS011;27908;42.708;23.278;2023-02-28T09:15:52;48.47;;;17.50;;
21878;SDS011;27908;42.708;23.278;2023-02-28T09:18:17;51.38;;;18.48;;
21878;SDS011;27908;42.708;23.278;2023-02-28T09:20:43;51.05;;;19.05;;
21878;SDS011;27908;42.708;23.278;2023-02-28T09:23:10;50.30;;;18.30;;
21878;SDS011;27908;42.708;23.278;2023-02-28T09:25:37;44.70;;;18.60;;
21878;SDS011;27908;42.708;23.278;2023-02-28T09:28:03;52.63;;;19.58;;
21878;SDS011;27908;42.708;23.278;2023-02-28T09:30:29;48.50;;;19.93;;
21878;SDS011;27908;42.708;23.278;2023-02-28T09:32:54;53.92;;;21.50;;
21878;SDS011;27908;42.708;23.278;2023-02-28T09:35:20;48.13;;;20.15;;
21878;SDS011;27908;42.708;23.278;2023-02-28T09:37:47;47.20;;;19.53;;
21878;SDS011;27908;42.708;23.278;2023-02-28T09:40:14;45.75;;;20.58;;
21878;SDS011;27908;42.708;23.278;2023-02-28T09:42:42;49.65;;;20.17;;
21878;SDS011;27908;42.708;23.278;2023-02-28T09:47:49;48.38;;;18.73;;
21878;SDS011;27908;42.708;23.278;2023-02-28T09:52:58;46.65;;;19.70;;
21878;SDS011;27908;42.708;23.278;2023-02-28T09:55:28;53.20;;;20.25;;
21878;SDS011;27908;42.708;23.278;2023-02-28T09:57:58;48.47;;;19.75;;
21878;SDS011;27908;42.708;23.278;2023-02-28T10:05:49;50.70;;;19.58;;
21878;SDS011;27908;42.708;23.278;2023-02-28T10:08:23;46.25;;;20.20;;
21878;SDS011;27908;42.708;23.278;2023-02-28T10:10:57;45.17;;;18.83;;
21878;SDS011;27908;42.708;23.278;2023-02-28T10:16:07;50.30;;;21.60;;
21878;SDS011;27908;42.708;23.278;2023-02-28T10:18:41;50.58;;;20.02;;
21878;SDS011;27908;42.708;23.278;2023-02-28T10:24:21;40.65;;;17.38;;
21878;SDS011;27908;42.708;23.278;2023-02-28T10:26:56;37.67;;;15.98;;
21878;SDS011;27908;42.708;23.278;2023-02-28T10:30:02;32.20;;;14.83;;
21878;SDS011;27908;42.708;23.278;2023-02-28T10:32:30;34.80;;;15.40;;
21878;SDS011;27908;42.708;23.278;2023-02-28T10:35:06;22.88;;;10.05;;
21878;SDS011;27908;42.708;23.278;2023-02-28T10:37:32;17.77;;;7.88;;
21878;SDS011;27908;42.708;23.278;2023-02-28T10:40:03;23.35;;;8.68;;
21878;SDS011;27908;42.708;23.278;2023-02-28T10:42:31;24.70;;;8.80;;
21878;SDS011;27908;42.708;23.278;2023-02-28T10:45:11;21.02;;;7.97;;
21878;SDS011;27908;42.708;23.278;2023-02-28T10:47:49;24.23;;;8.55;;
21878;SDS011;27908;42.708;23.278;2023-02-28T11:01:37;20.35;;;6.90;;
21878;SDS011;27908;42.708;23.278;2023-02-28T11:07:01;21.08;;;7.15;;
21878;SDS011;27908;42.708;23.278;2023-02-28T11:09:30;22.47;;;7.73;;
21878;SDS011;27908;42.708;23.278;2023-02-28T11:12:04;21.42;;;8.60;;
21878;SDS011;27908;42.708;23.278;2023-02-28T11:14:33;20.92;;;8.35;;
21878;SDS011;27908;42.708;23.278;2023-02-28T11:17:13;22.75;;;8.18;;
21878;SDS011;27908;42.708;23.278;2023-02-28T11:19:48;20.52;;;8.10;;
21878;SDS011;27908;42.708;23.278;2023-02-28T11:22:18;20.77;;;9.10;;
21878;SDS011;27908;42.708;23.278;2023-02-28T11:24:46;22.17;;;8.18;;
21878;SDS011;27908;42.708;23.278;2023-02-28T11:29:55;24.02;;;8.32;;
21878;SDS011;27908;42.708;23.278;2023-02-28T11:32:22;24.63;;;8.85;;
21878;SDS011;27908;42.708;23.278;2023-02-28T11:37:48;18.63;;;7.50;;
21878;SDS011;27908;42.708;23.278;2023-02-28T11:40:36;19.98;;;6.72;;
21878;SDS011;27908;42.708;23.278;2023-02-28T11:46:10;19.67;;;7.05;;
21878;SDS011;27908;42.708;23.278;2023-02-28T11:48:58;21.85;;;8.35;;
21878;SDS011;27908;42.708;23.278;2023-02-28T11:51:41;22.83;;;7.03;;
21878;SDS011;27908;42.708;23.278;2023-02-28T11:57:22;24.87;;;8.33;;
21878;SDS011;27908;42.708;23.278;2023-02-28T12:05:48;21.38;;;8.07;;
21878;SDS011;27908;42.708;23.278;2023-02-28T12:08:27;20.23;;;8.05;;
21878;SDS011;27908;42.708;23.278;2023-02-28T12:17:08;25.45;;;8.35;;
21878;SDS011;27908;42.708;23.278;2023-02-28T12:28:21;19.00;;;6.90;;
21878;SDS011;27908;42.708;23.278;2023-02-28T12:31:11;16.25;;;6.18;;
21878;SDS011;27908;42.708;23.278;2023-02-28T12:33:52;20.25;;;7.57;;
21878;SDS011;27908;42.708;23.278;2023-02-28T12:36:21;26.08;;;8.13;;
21878;SDS011;27908;42.708;23.278;2023-02-28T12:38:51;22.83;;;7.33;;
21878;SDS011;27908;42.708;23.278;2023-02-28T12:41:39;18.38;;;7.38;;
21878;SDS011;27908;42.708;23.278;2023-02-28T12:44:20;23.55;;;7.05;;
21878;SDS011;27908;42.708;23.278;2023-02-28T12:46:52;16.85;;;6.22;;
21878;SDS011;27908;42.708;23.278;2023-02-28T12:52:07;19.43;;;6.40;;
21878;SDS011;27908;42.708;23.278;2023-02-28T12:57:28;20.63;;;6.32;;
21878;SDS011;27908;42.708;23.278;2023-02-28T13:00:05;20.10;;;6.53;;
21878;SDS011;27908;42.708;23.278;2023-02-28T13:10:59;19.25;;;6.55;;
21878;SDS011;27908;42.708;23.278;2023-02-28T13:13:26;17.90;;;5.50;;
21878;SDS011;27908;42.708;23.278;2023-02-28T13:16:06;17.15;;;6.78;;
21878;SDS011;27908;42.708;23.278;2023-02-28T13:18:52;18.55;;;6.63;;
21878;SDS011;27908;42.708;23.278;2023-02-28T13:21:40;21.67;;;7.95;;
21878;SDS011;27908;42.708;23.278;2023-02-28T13:24:09;21.58;;;7.30;;
21878;SDS011;27908;42.708;23.278;2023-02-28T13:34:36;19.77;;;6.60;;
21878;SDS011;27908;42.708;23.278;2023-02-28T13:47:34;14.85;;;5.50;;
21878;SDS011;27908;42.708;23.278;2023-02-28T13:50:24;22.23;;;6.80;;
21878;SDS011;27908;42.708;23.278;2023-02-28T13:52:58;14.98;;;5.93;;
21878;SDS011;27908;42.708;23.278;2023-02-28T13:55:37;16.73;;;6.20;;
21878;SDS011;27908;42.708;23.278;2023-02-28T14:04:14;23.40;;;6.30;;
21878;SDS011;27908;42.708;23.278;2023-02-28T14:06:49;18.67;;;7.95;;
21878;SDS011;27908;42.708;23.278;2023-02-28T14:11:51;26.92;;;7.55;;
21878;SDS011;27908;42.708;23.278;2023-02-28T14:17:04;21.93;;;6.80;;
21878;SDS011;27908;42.708;23.278;2023-02-28T14:19:32;19.35;;;7.22;;
21878;SDS011;27908;42.708;23.278;2023-02-28T14:27:20;23.67;;;7.17;;
21878;SDS011;27908;42.708;23.278;2023-02-28T14:38:30;19.00;;;7.10;;
21878;SDS011;27908;42.708;23.278;2023-02-28T14:41:00;16.15;;;6.78;;
21878;SDS011;27908;42.708;23.278;2023-02-28T14:43:29;19.05;;;6.32;;
21878;SDS011;27908;42.708;23.278;2023-02-28T14:45:58;26.00;;;8.27;;
21878;SDS011;27908;42.708;23.278;2023-02-28T14:48:26;19.20;;;7.30;;
21878;SDS011;27908;42.708;23.278;2023-02-28T14:50:54;22.48;;;6.63;;
21878;SDS011;27908;42.708;23.278;2023-02-28T14:53:23;18.45;;;6.28;;
21878;SDS011;27908;42.708;23.278;2023-02-28T14:55:54;15.47;;;6.57;;
21878;SDS011;27908;42.708;23.278;2023-02-28T15:00:49;20.37;;;7.57;;
21878;SDS011;27908;42.708;23.278;2023-02-28T15:03:23;22.90;;;7.00;;
21878;SDS011;27908;42.708;23.278;2023-02-28T15:06:03;19.02;;;7.70;;
21878;SDS011;27908;42.708;23.278;2023-02-28T15:08:31;19.07;;;6.70;;
21878;SDS011;27908;42.708;23.278;2023-02-28T15:11:02;18.98;;;7.60;;
21878;SDS011;27908;42.708;23.278;2023-02-28T15:13:52;19.00;;;7.25;;
21878;SDS011;27908;42.708;23.278;2023-02-28T15:16:31;15.63;;;5.75;;
21878;SDS011;27908;42.708;23.278;2023-02-28T15:19:02;21.90;;;7.25;;
21878;SDS011;27908;42.708;23.278;2023-02-28T15:21:35;16.67;;;5.87;;
21878;SDS011;27908;42.708;23.278;2023-02-28T15:24:05;14.82;;;5.32;;
21878;SDS011;27908;42.708;23.278;2023-02-28T15:26:34;15.07;;;5.68;;
21878;SDS011;27908;42.708;23.278;2023-02-28T15:29:08;15.68;;;6.82;;
21878;SDS011;27908;42.708;23.278;2023-02-28T15:31:46;26.95;;;8.10;;
21878;SDS011;27908;42.708;23.278;2023-02-28T15:37:29;10.93;;;5.03;;
21878;SDS011;27908;42.708;23.278;2023-02-28T15:40:16;11.68;;;4.85;;
21878;SDS011;27908;42.708;23.278;2023-02-28T15:42:43;16.42;;;6.72;;
21878;SDS011;27908;42.708;23.278;2023-02-28T15:45:33;15.55;;;7.00;;
21878;SDS011;27908;42.708;23.278;2023-02-28T15:48:09;19.83;;;7.17;;
21878;SDS011;27908;42.708;23.278;2023-02-28T15:50:43;13.45;;;5.18;;
21878;SDS011;27908;42.708;23.278;2023-02-28T15:53:13;16.95;;;6.20;;
21878;SDS011;27908;42.708;23.278;2023-02-28T15:55:42;13.90;;;6.30;;
21878;SDS011;27908;42.708;23.278;2023-02-28T15:58:07;18.63;;;7.80;;
21878;SDS011;27908;42.708;23.278;2023-02-28T16:00:37;20.17;;;7.20;;
21878;SDS011;27908;42.708;23.278;2023-02-28T16:03:22;17.40;;;7.47;;
21878;SDS011;27908;42.708;23.278;2023-02-28T16:08:41;20.17;;;7.55;;
21878;SDS011;27908;42.708;23.278;2023-02-28T16:11:08;14.23;;;6.93;;
21878;SDS011;27908;42.708;23.278;2023-02-28T16:13:35;17.30;;;7.00;;
21878;SDS011;27908;42.708;23.278;2023-02-28T16:16:00;15.50;;;6.77;;
21878;SDS011;27908;42.708;23.278;2023-02-28T16:18:26;13.55;;;5.75;;
21878;SDS011;27908;42.708;23.278;2023-02-28T16:20:52;20.13;;;6.77;;
21878;SDS011;27908;42.708;23.278;2023-02-28T16:23:17;12.67;;;5.70;;
21878;SDS011;27908;42.708;23.278;2023-02-28T16:25:43;17.55;;;6.60;;
21878;SDS011;27908;42.708;23.278;2023-02-28T16:28:12;14.47;;;6.27;;
21878;SDS011;27908;42.708;23.278;2023-02-28T16:30:44;15.73;;;6.20;;
21878;SDS011;27908;42.708;23.278;2023-02-28T16:33:10;15.88;;;6.60;;
21878;SDS011;27908;42.708;23.278;2023-02-28T16:35:35;11.93;;;4.53;;
21878;SDS011;27908;42.708;23.278;2023-02-28T16:38:01;13.43;;;5.13;;
21878;SDS011;27908;42.708;23.278;2023-02-28T16:40:26;9.77;;;4.07;;
21878;SDS011;27908;42.708;23.278;2023-02-28T16:42:54;12.82;;;5.47;;
21878;SDS011;27908;42.708;23.278;2023-02-28T16:45:39;15.90;;;5.75;;
21878;SDS011;27908;42.708;23.278;2023-02-28T16:48:04;12.17;;;5.83;;
21878;SDS011;27908;42.708;23.278;2023-02-28T16:50:30;14.57;;;4.77;;
21878;SDS011;27908;42.708;23.278;2023-02-28T16:52:57;14.55;;;5.60;;
21878;SDS011;27908;42.708;23.278;2023-02-28T16:55:23;12.98;;;5.97;;
21878;SDS011;27908;42.708;23.278;2023-02-28T16:57:51;11.53;;;4.53;;
21878;SDS011;27908;42.708;23.278;2023-02-28T17:00:19;14.98;;;5.32;;
21878;SDS011;27908;42.708;23.278;2023-02-28T17:02:45;9.32;;;4.55;;
21878;SDS011;27908;42.708;23.278;2023-02-28T17:05:11;11.97;;;5.10;;
21878;SDS011;27908;42.708;23.278;2023-02-28T17:07:37;16.83;;;6.25;;